Lawtey, Florida
Current Conditions -  °F | °C
As of 7:35 PM on Wednesday 24 Dec 2014 (Local Time) from K42J Reporting Station
Overcast Overcast  
Wind Chill: 66°   Ceiling: 900
Heat Index: 66°   Visibility: 8mi
Dew Point: 66°   Wind: 10mph
Humidity: 100%   Direction: 250°WSW
Pressure: 29.86"   Gusts: NA
Location:  30.04°N, 82.07°W
Report Text: K42J 250035Z AUTO 25009KT 8SM OVC009 19/19 A2986 RMK AO1 TSNO
Loading
Personal Weather Stations






























Interactive Weather Map New forecast layout! Learn more

10-Day Weather Forecast

Advertisements
Track Severe Weather on mobile